This is the latest recevied weather packets stored in our database for station/object K1KOF. If no packets are shown the sender has not sent any weather packets the latest 10 day(s).
| Time | Temp. | Humidity | Pressure | Rain* | Wind** | Luminosity | Snow |
|---|---|---|---|---|---|---|---|
| 1777582079 | 24.44° C | 69% | 1019.5 hPa | 0 mm | - | 297 W/m² | - |
| 1777577821 | 25° C | 68% | 1019.5 hPa | 0 mm | - | 558 W/m² | - |
| 1777576300 | 23.89° C | 72% | 1020 hPa | 0 mm | - | 328 W/m² | - |
| 1777575388 | 23.33° C | 72% | 1020.2 hPa | 0 mm | - | 745 W/m² | - |
| 1777575085 | 23.33° C | 72% | 1020.2 hPa | 0 mm | - | 721 W/m² | - |
| 1777574781 | 23.89° C | 71% | 1020.1 hPa | 0 mm | - | 542 W/m² | - |
| 1777574479 | 23.33° C | 75% | 1020 hPa | 0 mm | - | 513 W/m² | - |
| 1777573565 | 23.89° C | 77% | 1020.1 hPa | 0 mm | - | 602 W/m² | - |
| 1777572654 | 23.33° C | 79% | 1020.3 hPa | 0 mm | - | 531 W/m² | - |
| 1777572353 | 22.78° C | 80% | 1020.3 hPa | 0 mm | - | 547 W/m² | - |
| 1777570536 | 21.67° C | 84% | 1020.7 hPa | 0 mm | - | 444 W/m² | - |
| 1777569927 | 21.67° C | 85% | 1020.9 hPa | 0 mm | - | 415 W/m² | - |
| 1777569624 | 21.11° C | 86% | 1021.1 hPa | 0 mm | - | 552 W/m² | - |
| 1777568108 | 21.11° C | 84% | 1021.1 hPa | 0 mm | - | 267 W/m² | - |
| 1777566896 | 21.11° C | 86% | 1020.8 hPa | 0 mm | - | 328 W/m² | - |
| 1777566594 | 21.11° C | 85% | 1021.2 hPa | 0 mm | - | 323 W/m² | - |
| 1777563860 | 20.56° C | 88% | 1021.6 hPa | 0 mm | - | 230 W/m² | - |
| 1777563556 | 20° C | 90% | 1021.5 hPa | 0 mm | - | 355 W/m² | - |
| 1777563255 | 20° C | 90% | 1021.6 hPa | 0 mm | - | 165 W/m² | - |
| 1777562952 | 20° C | 90% | 1021.7 hPa | 0 mm | - | 174 W/m² | - |
| 1777562648 | 20° C | 89% | 1021.7 hPa | 0 mm | - | 179 W/m² | - |
| 1777559914 | 18.89° C | 92% | 1020.9 hPa | 0 mm | - | 188 W/m² | - |
| 1777559307 | 18.89° C | 93% | 1020.6 hPa | 0 mm | - | 869 W/m² | - |
| 1777556272 | 16.67° C | 99% | 1019.3 hPa | 0 mm | - | 127 W/m² | - |
| 1777555360 | 16.67° C | 99% | 1019.4 hPa | 0 mm | - | 57 W/m² | - |
* Rain latest hour (hover to see other rain measurements)
** Current wind speed in m/s (hover to see current wind gust speed)